Meadville, Pennsylvania
Current Conditions -  °F | °C
As of 12:07 PM on Thursday 30 Oct 2014 (Local Time) from KGKJ Reporting Station
Haze Haze  
Wind Chill: 43°   Ceiling: 1400
Heat Index: 45°   Visibility: 5mi
Dew Point: 39°   Wind: 5mph
Humidity: 80%   Direction: 320°NW
Pressure: 30.09"   Gusts: NA
Location:  41.64°N, 80.15°W
Report Text: KGKJ 301607Z AUTO 32004KT 5SM HZ BKN014 BKN019 OVC028 07/04 A3009 RMK AO2 T00720039 TSNO
Loading
Personal Weather Stations






























Interactive Weather Map
Tropical Storm Tracking
New forecast layout! Learn more

10-Day Weather Forecast

Advertisements
Track Severe Weather on mobile